Time;durP1;ratioP1;P1;durP2;ratioP2;P2;SDS_P1;SDS_P2;PMS_P1;PMS_P2;Temp;Humidity;BMP_temperature;BMP_pressure;BME280_temperature;BME280_humidity;BME280_pressure;Samples;Min_cycle;Max_cycle;Signal;HPM_P1;HPM_P2
2022/06/15 00:00:08;;;;;;;3.85;3.03;;;;;;;;;;5015239;28;20058;-77
2022/06/15 00:02:34;;;;;;;4.10;3.17;;;;;;;;;;5015045;28;20038;-78
2022/06/15 00:05:01;;;;;;;3.50;3.10;;;;;;;;;;5016326;28;20046;-77
2022/06/15 00:07:27;;;;;;;4.82;3.33;;;;;;;;;;5016320;28;20034;-78
2022/06/15 00:09:53;;;;;;;4.30;3.10;;;;;;;;;;5014707;28;20045;-77
2022/06/15 00:12:19;;;;;;;3.75;3.35;;;;;;;;;;5015965;28;20073;-77
2022/06/15 00:14:45;;;;;;;4.18;3.13;;;;;;;;;;5016228;28;20568;-78
2022/06/15 00:17:11;;;;;;;7.07;3.70;;;;;;;;;;5016111;28;20036;-77
2022/06/15 00:19:37;;;;;;;4.53;2.95;;;;;;;;;;5016372;28;20133;-78
2022/06/15 00:22:03;;;;;;;4.10;3.53;;;;;;;;;;5016264;28;20050;-77
2022/06/15 00:24:29;;;;;;;4.50;2.90;;;;;;;;;;5015987;28;20049;-77
2022/06/15 00:26:56;;;;;;;4.30;3.13;;;;;;;;;;5016221;28;20115;-77
2022/06/15 00:29:22;;;;;;;4.68;3.28;;;;;;;;;;5015778;28;20038;-78
2022/06/15 00:31:48;;;;;;;3.40;3.10;;;;;;;;;;5015596;28;20049;-78
2022/06/15 00:34:14;;;;;;;4.70;3.28;;;;;;;;;;5016339;28;20042;-77
2022/06/15 00:36:40;;;;;;;3.67;3.28;;;;;;;;;;5015501;28;20133;-77
2022/06/15 00:39:06;;;;;;;5.55;3.42;;;;;;;;;;5016348;28;20072;-77
2022/06/15 00:41:36;;;;;;;4.38;3.28;;;;;;;;;;5015582;28;20038;-77
2022/06/15 00:44:17;;;;;;;5.25;3.28;;;;;;;;;;5015494;28;20152;-77
2022/06/15 00:46:45;;;;;;;8.63;3.60;;;;;;;;;;5015339;28;20064;-77
2022/06/15 00:49:18;;;;;;;3.70;3.35;;;;;;;;;;5015921;28;20034;-78
2022/06/15 00:51:44;;;;;;;7.63;3.30;;;;;;;;;;5015520;28;20045;-78
2022/06/15 00:54:11;;;;;;;3.72;3.03;;;;;;;;;;5015534;28;20088;-78
2022/06/15 00:56:38;;;;;;;3.80;3.35;;;;;;;;;;5015196;28;20488;-77
2022/06/15 00:59:13;;;;;;;5.93;3.60;;;;;;;;;;5015013;28;20116;-77
2022/06/15 01:01:40;;;;;;;3.63;3.33;;;;;;;;;;5016264;28;20477;-78
2022/06/15 01:04:06;;;;;;;3.88;3.03;;;;;;;;;;5015634;28;20049;-78
2022/06/15 01:06:32;;;;;;;6.25;3.40;;;;;;;;;;5014109;28;20041;-78
2022/06/15 01:09:13;;;;;;;4.38;3.25;;;;;;;;;;5014059;28;20492;-77
2022/06/15 01:11:45;;;;;;;4.32;3.10;;;;;;;;;;5015551;28;20053;-78
2022/06/15 01:14:30;;;;;;;5.38;3.28;;;;;;;;;;5014989;28;20042;-78
2022/06/15 01:17:15;;;;;;;4.55;3.35;;;;;;;;;;5015140;28;20029;-78
2022/06/15 01:19:57;;;;;;;5.15;3.35;;;;;;;;;;5015881;28;20045;-78
2022/06/15 01:22:42;;;;;;;5.90;3.63;;;;;;;;;;5015660;28;20100;-77
2022/06/15 01:25:31;;;;;;;5.20;3.40;;;;;;;;;;5014572;28;20095;-77
2022/06/15 01:28:18;;;;;;;4.68;3.45;;;;;;;;;;5013719;28;20045;-78
2022/06/15 01:30:47;;;;;;;4.82;3.33;;;;;;;;;;4984567;28;20042;-78
2022/06/15 01:33:21;;;;;;;3.42;3.13;;;;;;;;;;5015210;28;20100;-77
2022/06/15 01:35:47;;;;;;;3.67;3.30;;;;;;;;;;5014887;28;20413;-78
2022/06/15 01:38:22;;;;;;;4.75;3.75;;;;;;;;;;5015090;28;20041;-78
2022/06/15 01:41:08;;;;;;;4.45;3.55;;;;;;;;;;5015043;28;20037;-78
2022/06/15 01:43:38;;;;;;;3.92;3.13;;;;;;;;;;5013551;28;20435;-78
2022/06/15 01:46:05;;;;;;;4.95;3.85;;;;;;;;;;5014702;28;20104;-78
2022/06/15 01:48:31;;;;;;;5.55;3.38;;;;;;;;;;5015006;28;20109;-77
2022/06/15 01:51:04;;;;;;;5.13;3.28;;;;;;;;;;5014911;28;20049;-78
2022/06/15 01:53:35;;;;;;;3.65;3.15;;;;;;;;;;5015367;28;20045;-77
2022/06/15 01:56:09;;;;;;;4.70;3.03;;;;;;;;;;5015032;28;20046;-78
2022/06/15 01:58:36;;;;;;;3.95;3.13;;;;;;;;;;5014886;28;20053;-78
2022/06/15 02:01:16;;;;;;;7.15;3.92;;;;;;;;;;5014248;28;20513;-77
2022/06/15 02:03:49;;;;;;;5.78;3.33;;;;;;;;;;5014339;28;20046;-77
2022/06/15 02:06:32;;;;;;;5.18;3.42;;;;;;;;;;5014313;28;20506;-77
2022/06/15 02:09:07;;;;;;;4.53;3.33;;;;;;;;;;5015146;28;20046;-78
2022/06/15 02:11:38;;;;;;;6.15;3.58;;;;;;;;;;5014279;28;20054;-78
2022/06/15 02:14:10;;;;;;;6.40;3.78;;;;;;;;;;5013052;28;20034;-77
2022/06/15 02:16:39;;;;;;;4.90;3.30;;;;;;;;;;5014223;28;20045;-77
2022/06/15 02:19:07;;;;;;;5.55;3.30;;;;;;;;;;5017093;28;20034;-77
2022/06/15 02:21:34;;;;;;;3.95;3.63;;;;;;;;;;5018201;28;20049;-77
2022/06/15 02:24:02;;;;;;;6.57;3.60;;;;;;;;;;5018536;28;20042;-78
2022/06/15 02:26:30;;;;;;;4.15;3.35;;;;;;;;;;5018208;28;20045;-78
2022/06/15 02:28:59;;;;;;;5.60;3.28;;;;;;;;;;5017856;28;20485;-77
2022/06/15 02:31:26;;;;;;;4.15;3.80;;;;;;;;;;5017660;28;20046;-77
2022/06/15 02:33:54;;;;;;;5.53;3.50;;;;;;;;;;5018071;28;20088;-77
2022/06/15 02:36:21;;;;;;;5.85;3.97;;;;;;;;;;5017794;28;20133;-78
2022/06/15 02:38:49;;;;;;;5.30;4.00;;;;;;;;;;5018524;28;20064;-77
2022/06/15 02:41:18;;;;;;;4.05;3.35;;;;;;;;;;5017984;28;20042;-77
2022/06/15 02:43:44;;;;;;;4.70;3.65;;;;;;;;;;5017550;28;20045;-78
2022/06/15 02:46:13;;;;;;;3.75;3.15;;;;;;;;;;5017529;28;20096;-78
2022/06/15 02:48:40;;;;;;;5.60;3.40;;;;;;;;;;5016574;28;20041;-78
2022/06/15 02:51:26;;;;;;;3.97;3.58;;;;;;;;;;5017891;28;20050;-78
2022/06/15 02:53:54;;;;;;;5.28;3.30;;;;;;;;;;5017292;28;20054;-77
2022/06/15 02:56:21;;;;;;;5.57;3.60;;;;;;;;;;5017401;28;20042;-77
2022/06/15 02:58:48;;;;;;;4.32;3.45;;;;;;;;;;5018007;28;20038;-78
2022/06/15 03:01:15;;;;;;;5.32;3.95;;;;;;;;;;5017092;28;20057;-78
2022/06/15 03:03:42;;;;;;;3.78;3.47;;;;;;;;;;5017168;28;20041;-77
2022/06/15 03:06:12;;;;;;;4.25;3.58;;;;;;;;;;5017277;28;20192;-78
2022/06/15 03:08:38;;;;;;;5.00;3.22;;;;;;;;;;5017503;28;20034;-78
2022/06/15 03:11:05;;;;;;;6.25;3.30;;;;;;;;;;5017570;28;20046;-77
2022/06/15 03:13:31;;;;;;;5.38;3.55;;;;;;;;;;5017369;28;20049;-78
2022/06/15 03:15:58;;;;;;;4.95;3.60;;;;;;;;;;5017148;28;20145;-78
2022/06/15 03:18:25;;;;;;;5.25;3.75;;;;;;;;;;5017243;28;20628;-78
2022/06/15 03:20:51;;;;;;;5.05;3.65;;;;;;;;;;5017448;28;20045;-78
2022/06/15 03:23:17;;;;;;;5.65;3.60;;;;;;;;;;5016826;28;20041;-78
2022/06/15 03:25:43;;;;;;;7.18;3.40;;;;;;;;;;5017299;28;20054;-78
2022/06/15 03:28:10;;;;;;;4.85;3.67;;;;;;;;;;5017106;28;20041;-78
2022/06/15 03:30:38;;;;;;;9.20;4.15;;;;;;;;;;5017109;28;20527;-78
2022/06/15 03:33:05;;;;;;;7.00;3.80;;;;;;;;;;5016979;28;20045;-78
2022/06/15 03:35:34;;;;;;;5.60;4.00;;;;;;;;;;5016660;28;20056;-78
2022/06/15 03:38:01;;;;;;;6.32;3.65;;;;;;;;;;5016890;28;20485;-78
2022/06/15 03:40:27;;;;;;;4.93;3.55;;;;;;;;;;5016996;28;20131;-78
2022/06/15 03:42:53;;;;;;;4.80;4.03;;;;;;;;;;5016992;28;20049;-78
2022/06/15 03:45:20;;;;;;;5.78;3.65;;;;;;;;;;5015363;28;20038;-78
2022/06/15 03:47:46;;;;;;;4.82;3.90;;;;;;;;;;5016708;28;20038;-78
2022/06/15 03:50:12;;;;;;;8.10;4.20;;;;;;;;;;5015758;28;20397;-78
2022/06/15 03:52:39;;;;;;;4.20;3.80;;;;;;;;;;5016607;28;20045;-78
2022/06/15 03:55:05;;;;;;;4.25;3.85;;;;;;;;;;5016633;28;20050;-78
2022/06/15 03:57:32;;;;;;;9.40;3.92;;;;;;;;;;5014464;28;20038;-79
2022/06/15 03:59:58;;;;;;;6.03;3.75;;;;;;;;;;5015564;28;20053;-79
2022/06/15 04:02:24;;;;;;;3.67;3.38;;;;;;;;;;5015395;28;20066;-78
2022/06/15 04:04:50;;;;;;;4.20;3.80;;;;;;;;;;5015694;28;20049;-77
2022/06/15 04:10:01;;;;;;;5.03;3.67;;;;;;;;;;5006867;28;20045;-78
2022/06/15 04:12:27;;;;;;;7.18;3.85;;;;;;;;;;5015465;28;20038;-78
2022/06/15 04:14:53;;;;;;;6.85;3.80;;;;;;;;;;5015271;28;20042;-78
2022/06/15 04:17:20;;;;;;;5.80;4.38;;;;;;;;;;5015265;28;20041;-78
2022/06/15 04:20:31;;;;;;;7.00;4.00;;;;;;;;;;5014682;28;20573;-78
2022/06/15 04:22:35;;;;;;;11.77;4.15;;;;;;;;;;5013356;28;20045;-78
2022/06/15 04:25:01;;;;;;;5.05;3.88;;;;;;;;;;5013821;28;20172;-78
2022/06/15 04:27:27;;;;;;;6.45;3.90;;;;;;;;;;5015258;28;20042;-78
2022/06/15 04:29:53;;;;;;;5.22;3.83;;;;;;;;;;5015249;28;20068;-78
2022/06/15 04:32:19;;;;;;;4.03;3.33;;;;;;;;;;5015402;28;20630;-77
2022/06/15 04:34:46;;;;;;;5.93;3.65;;;;;;;;;;5015003;28;20089;-78
2022/06/15 04:37:12;;;;;;;4.18;3.40;;;;;;;;;;5015054;28;20046;-81
2022/06/15 04:39:38;;;;;;;5.85;3.80;;;;;;;;;;5013446;28;20092;-77
2022/06/15 04:42:04;;;;;;;5.68;3.30;;;;;;;;;;5014425;28;20484;-77
2022/06/15 04:44:30;;;;;;;5.38;3.75;;;;;;;;;;5015109;28;20042;-77
2022/06/15 04:46:58;;;;;;;4.15;3.38;;;;;;;;;;5016174;28;20575;-77
2022/06/15 04:49:24;;;;;;;8.27;3.92;;;;;;;;;;5015887;28;20078;-77
2022/06/15 04:51:50;;;;;;;4.82;3.42;;;;;;;;;;5015294;28;20056;-77
2022/06/15 04:54:16;;;;;;;4.75;3.42;;;;;;;;;;5015215;28;20038;-77
2022/06/15 04:56:43;;;;;;;7.78;3.55;;;;;;;;;;5016023;28;20048;-77
2022/06/15 04:59:09;;;;;;;4.45;3.30;;;;;;;;;;5015896;28;20541;-77
2022/06/15 05:01:35;;;;;;;7.70;3.05;;;;;;;;;;5015101;28;20058;-77
2022/06/15 05:04:01;;;;;;;4.32;3.05;;;;;;;;;;5015629;28;20096;-78
2022/06/15 05:06:32;;;;;;;3.78;3.08;;;;;;;;;;5014003;28;20096;-78
2022/06/15 05:08:58;;;;;;;7.78;3.30;;;;;;;;;;5014220;28;20401;-78
2022/06/15 05:14:00;;;;;;;10.65;3.63;;;;;;;;;;5095278;23;20082;-77
2022/06/15 05:16:27;;;;;;;7.80;3.47;;;;;;;;;;4994049;28;20077;-77
2022/06/15 05:18:53;;;;;;;10.65;3.88;;;;;;;;;;4999492;28;20033;-78
2022/06/15 05:21:19;;;;;;;9.75;3.67;;;;;;;;;;4990081;28;20068;-77
2022/06/15 05:23:45;;;;;;;7.85;3.90;;;;;;;;;;4991792;28;20097;-77
2022/06/15 05:26:12;;;;;;;8.77;3.67;;;;;;;;;;4994248;28;20038;-77
2022/06/15 05:28:38;;;;;;;9.05;4.18;;;;;;;;;;4990934;28;20100;-77
2022/06/15 05:31:05;;;;;;;5.90;3.70;;;;;;;;;;4992469;28;20042;-77
2022/06/15 05:33:33;;;;;;;7.28;3.65;;;;;;;;;;4993281;28;20523;-78
2022/06/15 05:36:04;;;;;;;10.23;3.45;;;;;;;;;;4993664;28;20037;-77
2022/06/15 05:38:30;;;;;;;4.07;3.53;;;;;;;;;;4993769;28;20053;-76
2022/06/15 05:40:56;;;;;;;6.03;3.35;;;;;;;;;;4993094;28;20038;-77
2022/06/15 05:43:22;;;;;;;5.07;3.30;;;;;;;;;;4993052;28;20053;-77
2022/06/15 05:45:48;;;;;;;5.22;3.00;;;;;;;;;;4993353;28;20050;-77
2022/06/15 05:48:15;;;;;;;5.28;3.70;;;;;;;;;;4993610;28;20046;-77
2022/06/15 05:50:41;;;;;;;3.88;3.17;;;;;;;;;;4992667;28;20070;-77
2022/06/15 05:53:07;;;;;;;6.30;2.97;;;;;;;;;;4993902;28;20501;-77
2022/06/15 05:55:33;;;;;;;3.88;2.90;;;;;;;;;;4997145;28;20043;-76
2022/06/15 05:57:59;;;;;;;4.43;2.55;;;;;;;;;;4996803;28;20575;-71
2022/06/15 06:00:25;;;;;;;6.45;3.28;;;;;;;;;;4997343;28;20046;-71
2022/06/15 06:02:52;;;;;;;5.95;3.10;;;;;;;;;;4996659;28;20056;-72
2022/06/15 06:05:18;;;;;;;4.68;3.00;;;;;;;;;;4997278;28;20057;-70
2022/06/15 06:07:45;;;;;;;5.63;2.80;;;;;;;;;;4997426;28;20496;-70
2022/06/15 06:10:11;;;;;;;7.63;3.00;;;;;;;;;;4997546;28;20448;-70
2022/06/15 06:12:37;;;;;;;4.13;2.67;;;;;;;;;;4997478;28;20062;-70
2022/06/15 06:15:04;;;;;;;5.28;2.97;;;;;;;;;;4997952;28;20038;-70
2022/06/15 06:17:30;;;;;;;9.32;2.83;;;;;;;;;;4997947;28;20555;-68
2022/06/15 06:19:56;;;;;;;4.97;3.10;;;;;;;;;;4997818;28;20074;-68
2022/06/15 06:22:23;;;;;;;9.30;3.20;;;;;;;;;;4997577;28;20508;-68
2022/06/15 06:24:49;;;;;;;5.97;2.65;;;;;;;;;;4996811;28;20058;-68
2022/06/15 06:27:16;;;;;;;8.02;2.88;;;;;;;;;;4996775;28;20042;-71
2022/06/15 06:29:42;;;;;;;6.03;2.20;;;;;;;;;;4997150;28;20042;-71
2022/06/15 06:32:15;;;;;;;6.90;2.65;;;;;;;;;;4998145;28;20054;-71
2022/06/15 06:34:41;;;;;;;15.60;3.10;;;;;;;;;;4997967;28;20465;-71
2022/06/15 06:37:07;;;;;;;5.05;2.13;;;;;;;;;;4997705;28;20061;-71
2022/06/15 06:39:34;;;;;;;4.82;2.80;;;;;;;;;;4997328;28;20042;-71
2022/06/15 06:42:01;;;;;;;4.60;3.15;;;;;;;;;;4997395;28;20066;-71
2022/06/15 06:44:27;;;;;;;7.22;2.63;;;;;;;;;;4997406;28;20561;-71
2022/06/15 06:46:54;;;;;;;6.22;2.67;;;;;;;;;;4997080;28;20050;-71
2022/06/15 06:49:21;;;;;;;3.35;2.65;;;;;;;;;;4997301;28;20046;-71
2022/06/15 06:51:47;;;;;;;2.50;2.30;;;;;;;;;;4997045;28;20043;-71
2022/06/15 06:54:14;;;;;;;6.43;2.63;;;;;;;;;;4997261;28;20046;-71
2022/06/15 06:56:41;;;;;;;6.97;2.78;;;;;;;;;;4996723;28;20049;-71
2022/06/15 06:59:08;;;;;;;3.65;2.72;;;;;;;;;;4997205;28;20469;-71
2022/06/15 07:01:35;;;;;;;4.78;2.55;;;;;;;;;;4996816;28;20100;-71
2022/06/15 07:04:01;;;;;;;5.57;3.00;;;;;;;;;;4996665;28;20050;-71
2022/06/15 07:06:28;;;;;;;4.85;3.15;;;;;;;;;;4997059;28;20070;-71
2022/06/15 07:08:54;;;;;;;4.20;2.50;;;;;;;;;;4996725;28;20057;-71
2022/06/15 07:11:20;;;;;;;8.30;2.85;;;;;;;;;;4996953;28;20045;-71
2022/06/15 07:13:46;;;;;;;7.43;2.70;;;;;;;;;;4996438;28;20543;-71
2022/06/15 07:16:15;;;;;;;4.18;2.50;;;;;;;;;;4996307;28;20045;-71
2022/06/15 07:18:43;;;;;;;5.47;2.20;;;;;;;;;;4996405;28;20045;-71
2022/06/15 07:21:13;;;;;;;7.32;2.30;;;;;;;;;;4996173;28;20112;-71
2022/06/15 07:23:40;;;;;;;4.43;2.20;;;;;;;;;;4996144;28;20050;-71
2022/06/15 07:26:10;;;;;;;5.32;2.30;;;;;;;;;;4996440;28;20050;-71
2022/06/15 07:28:36;;;;;;;4.45;2.13;;;;;;;;;;4995901;28;20669;-71
2022/06/15 07:31:02;;;;;;;5.38;2.28;;;;;;;;;;4996306;28;20050;-71
2022/06/15 07:33:29;;;;;;;4.80;2.47;;;;;;;;;;4996399;28;20128;-71
2022/06/15 07:35:55;;;;;;;3.97;2.10;;;;;;;;;;4995697;28;20366;-71
2022/06/15 07:38:22;;;;;;;4.25;2.00;;;;;;;;;;4995815;28;20494;-71
2022/06/15 07:40:49;;;;;;;3.78;2.30;;;;;;;;;;4995839;28;20042;-71
2022/06/15 07:43:15;;;;;;;3.17;1.80;;;;;;;;;;4996303;28;20120;-71
2022/06/15 07:45:42;;;;;;;5.60;2.50;;;;;;;;;;4995979;28;20181;-71
2022/06/15 07:50:53;;;;;;;4.90;2.08;;;;;;;;;;4995427;28;20147;-71
2022/06/15 07:53:19;;;;;;;3.28;2.05;;;;;;;;;;4996061;28;20057;-71
2022/06/15 07:55:46;;;;;;;3.83;1.90;;;;;;;;;;4995918;28;20493;-71
2022/06/15 07:58:13;;;;;;;4.18;2.00;;;;;;;;;;4995569;28;20061;-71
2022/06/15 08:00:41;;;;;;;5.40;1.88;;;;;;;;;;4995733;28;20515;-71
2022/06/15 08:03:09;;;;;;;2.50;2.20;;;;;;;;;;4995504;28;20099;-71
2022/06/15 08:05:36;;;;;;;3.70;1.80;;;;;;;;;;4995282;28;20042;-70
2022/06/15 08:08:22;;;;;;;3.22;1.65;;;;;;;;;;4995597;28;20049;-71
2022/06/15 08:10:49;;;;;;;4.18;2.22;;;;;;;;;;4995352;28;20085;-71
2022/06/15 08:13:15;;;;;;;4.85;2.30;;;;;;;;;;4995274;28;20090;-70
2022/06/15 08:15:43;;;;;;;3.33;1.90;;;;;;;;;;4994687;28;20046;-70
2022/06/15 08:18:11;;;;;;;6.53;1.80;;;;;;;;;;4995050;28;20520;-70
2022/06/15 08:20:41;;;;;;;2.47;1.77;;;;;;;;;;4995120;28;20034;-70
2022/06/15 08:23:12;;;;;;;4.10;2.00;;;;;;;;;;4995340;28;20046;-70
2022/06/15 08:25:40;;;;;;;3.60;2.03;;;;;;;;;;5007652;28;20044;-72
2022/06/15 08:28:07;;;;;;;5.15;2.10;;;;;;;;;;5014585;28;20056;-72
2022/06/15 08:30:36;;;;;;;3.00;1.95;;;;;;;;;;5014458;28;20117;-72
2022/06/15 08:33:02;;;;;;;5.28;1.70;;;;;;;;;;5014391;28;20084;-71
2022/06/15 08:35:29;;;;;;;2.63;2.20;;;;;;;;;;5014648;28;20038;-71
2022/06/15 08:37:56;;;;;;;4.68;1.95;;;;;;;;;;5013220;28;20034;-72
2022/06/15 08:40:22;;;;;;;4.80;2.10;;;;;;;;;;5014230;28;20034;-72
2022/06/15 08:42:48;;;;;;;5.07;2.38;;;;;;;;;;5014479;28;20180;-72
2022/06/15 08:45:15;;;;;;;7.22;2.30;;;;;;;;;;5014187;28;20050;-72
2022/06/15 08:47:47;;;;;;;7.07;2.22;;;;;;;;;;5014090;28;20500;-72
2022/06/15 08:50:34;;;;;;;6.15;2.30;;;;;;;;;;5014435;28;20048;-71
2022/06/15 08:53:14;;;;;;;3.17;2.10;;;;;;;;;;4994068;28;20705;-72
2022/06/15 08:55:43;;;;;;;6.03;2.00;;;;;;;;;;4994553;28;20038;-72
2022/06/15 08:58:16;;;;;;;2.42;2.00;;;;;;;;;;5009594;28;20496;-72
2022/06/15 09:00:43;;;;;;;5.10;2.20;;;;;;;;;;4993965;28;20030;-72
2022/06/15 09:03:34;;;;;;;3.35;2.10;;;;;;;;;;4990923;28;20400;-72
2022/06/15 09:06:07;;;;;;;2.35;1.83;;;;;;;;;;4986203;28;20136;-69
2022/06/15 09:08:52;;;;;;;2.95;2.30;;;;;;;;;;4992654;28;20034;-69
2022/06/15 09:11:28;;;;;;;3.38;2.20;;;;;;;;;;4994057;28;20082;-70
2022/06/15 09:14:00;;;;;;;2.45;1.88;;;;;;;;;;4994514;28;20058;-70
2022/06/15 09:17:01;;;;;;;2.95;1.70;;;;;;;;;;4993877;28;20038;-70
2022/06/15 09:19:30;;;;;;;4.32;2.53;;;;;;;;;;4952414;29;20046;-70
2022/06/15 09:21:57;;;;;;;3.03;2.10;;;;;;;;;;4986162;28;20053;-70
2022/06/15 09:24:48;;;;;;;2.42;2.10;;;;;;;;;;4993798;28;20034;-70
2022/06/15 09:27:35;;;;;;;2.67;2.20;;;;;;;;;;4993320;28;20507;-69
2022/06/15 09:30:13;;;;;;;5.60;2.00;;;;;;;;;;4993915;28;20045;-70
2022/06/15 09:32:41;;;;;;;6.68;2.10;;;;;;;;;;4993814;28;20050;-70
2022/06/15 09:35:10;;;;;;;2.53;1.67;;;;;;;;;;4994054;28;20069;-69
2022/06/15 09:37:40;;;;;;;2.05;1.70;;;;;;;;;;4993665;28;20065;-68
2022/06/15 09:40:07;;;;;;;3.78;1.92;;;;;;;;;;4993648;28;20121;-69
2022/06/15 09:42:48;;;;;;;3.33;1.98;;;;;;;;;;4993584;28;20053;-69
2022/06/15 09:45:24;;;;;;;4.95;1.60;;;;;;;;;;4993365;28;20424;-70
2022/06/15 09:47:51;;;;;;;4.80;1.70;;;;;;;;;;4992857;28;20035;-70
2022/06/15 09:50:21;;;;;;;2.13;1.73;;;;;;;;;;4993265;28;20386;-70
2022/06/15 09:52:48;;;;;;;;;;;;;;;;;;4993777;28;20046;-70
2022/06/15 09:55:25;;;;;;;2.97;1.63;;;;;;;;;;4993282;28;19910;-70
2022/06/15 09:57:53;;;;;;;7.25;1.65;;;;;;;;;;4993229;28;20042;-70
2022/06/15 10:00:19;;;;;;;4.60;1.63;;;;;;;;;;4993150;28;20587;-70
2022/06/15 10:02:51;;;;;;;1.95;1.40;;;;;;;;;;4993521;28;20050;-70
2022/06/15 10:05:24;;;;;;;1.73;1.42;;;;;;;;;;4993438;28;20045;-70
2022/06/15 10:07:51;;;;;;;1.88;1.40;;;;;;;;;;4993582;28;20042;-71
2022/06/15 10:10:32;;;;;;;1.88;1.35;;;;;;;;;;4993744;28;20034;-70
2022/06/15 10:13:03;;;;;;;2.75;1.30;;;;;;;;;;4993056;28;20058;-70
2022/06/15 10:15:32;;;;;;;3.95;1.58;;;;;;;;;;4993438;28;20121;-70
2022/06/15 10:18:00;;;;;;;3.65;1.58;;;;;;;;;;4993418;28;20042;-70
2022/06/15 10:20:35;;;;;;;1.85;1.33;;;;;;;;;;4993407;28;20622;-70
2022/06/15 10:23:07;;;;;;;4.70;1.80;;;;;;;;;;4993322;28;20081;-70
2022/06/15 10:25:37;;;;;;;2.28;1.58;;;;;;;;;;4993370;28;20050;-69
2022/06/15 10:28:22;;;;;;;2.15;1.45;;;;;;;;;;4992914;28;20073;-70
2022/06/15 10:30:53;;;;;;;2.47;1.67;;;;;;;;;;4993356;28;20121;-70
2022/06/15 10:33:20;;;;;;;1.67;1.40;;;;;;;;;;4993716;28;20513;-70
2022/06/15 10:35:51;;;;;;;2.25;1.35;;;;;;;;;;4993197;28;20038;-70
2022/06/15 10:38:19;;;;;;;3.65;1.50;;;;;;;;;;4993525;28;20042;-70
2022/06/15 10:40:54;;;;;;;3.53;1.73;;;;;;;;;;4996416;28;20097;-70
2022/06/15 10:43:24;;;;;;;4.05;1.80;;;;;;;;;;4996667;28;20053;-69
2022/06/15 10:45:53;;;;;;;1.73;1.33;;;;;;;;;;4995808;28;20038;-69
2022/06/15 10:48:31;;;;;;;4.35;1.20;;;;;;;;;;4996754;28;20096;-71
2022/06/15 10:51:05;;;;;;;1.58;1.48;;;;;;;;;;4997119;28;20109;-70
2022/06/15 10:53:34;;;;;;;3.05;1.50;;;;;;;;;;4996755;28;20640;-70
2022/06/15 11:04:35;;;;;;;2.92;1.55;;;;;;;;;;4996264;28;20037;-71
2022/06/15 11:07:10;;;;;;;1.52;1.42;;;;;;;;;;4996438;28;20050;-69
2022/06/15 11:09:57;;;;;;;1.83;1.15;;;;;;;;;;4996339;28;20121;-69
2022/06/15 11:12:31;;;;;;;3.88;1.40;;;;;;;;;;4965567;28;20108;-69
2022/06/15 11:15:22;;;;;;;2.92;1.48;;;;;;;;;;4996396;28;20049;-69
2022/06/15 11:18:03;;;;;;;3.20;1.40;;;;;;;;;;4996590;28;20042;-69
2022/06/15 11:20:42;;;;;;;1.80;1.50;;;;;;;;;;4996324;28;20046;-69
2022/06/15 11:23:08;;;;;;;4.43;2.30;;;;;;;;;;4996390;28;20050;-69
2022/06/15 11:25:38;;;;;;;1.88;1.38;;;;;;;;;;4996034;28;20043;-69
2022/06/15 11:28:08;;;;;;;1.30;1.20;;;;;;;;;;4996061;28;20125;-69
2022/06/15 11:30:36;;;;;;;2.05;1.20;;;;;;;;;;4996239;28;20085;-69
2022/06/15 11:33:13;;;;;;;1.88;1.30;;;;;;;;;;4996045;28;20042;-70
2022/06/15 11:35:41;;;;;;;1.55;1.45;;;;;;;;;;4996062;28;20049;-69
2022/06/15 11:38:13;;;;;;;2.78;1.55;;;;;;;;;;4996023;28;20051;-69
2022/06/15 11:40:54;;;;;;;6.25;1.90;;;;;;;;;;4995574;28;20520;-69
2022/06/15 11:43:20;;;;;;;3.22;1.88;;;;;;;;;;4995604;28;20097;-70
2022/06/15 11:46:04;;;;;;;3.38;1.55;;;;;;;;;;4995732;28;20050;-69
2022/06/15 11:48:43;;;;;;;6.50;2.20;;;;;;;;;;4995870;28;20096;-69
2022/06/15 11:51:14;;;;;;;3.72;1.50;;;;;;;;;;4990839;28;20061;-70
2022/06/15 11:54:00;;;;;;;2.00;1.80;;;;;;;;;;4994308;28;20046;-70
2022/06/15 11:56:29;;;;;;;3.67;1.77;;;;;;;;;;4994837;28;20065;-70
2022/06/15 11:58:59;;;;;;;5.72;2.42;;;;;;;;;;4993854;28;20085;-70
2022/06/15 12:01:44;;;;;;;4.13;1.85;;;;;;;;;;4994739;28;20042;-70
2022/06/15 12:04:29;;;;;;;4.57;2.03;;;;;;;;;;4995181;28;20117;-70
2022/06/15 12:06:55;;;;;;;2.65;1.73;;;;;;;;;;4993738;28;20053;-70
2022/06/15 12:09:27;;;;;;;2.92;1.90;;;;;;;;;;4994527;28;20046;-70
2022/06/15 12:15:14;;;;;;;2.92;1.90;;;;;;;;;;4955598;29;20077;-70
2022/06/15 12:18:04;;;;;;;3.40;2.00;;;;;;;;;;4956059;28;20070;-70
2022/06/15 12:20:30;;;;;;;4.35;1.80;;;;;;;;;;4955222;28;20058;-70
2022/06/15 12:23:07;;;;;;;2.90;2.25;;;;;;;;;;4955615;28;20039;-70
2022/06/15 12:25:39;;;;;;;2.50;1.80;;;;;;;;;;4956025;28;20053;-70
2022/06/15 12:28:08;;;;;;;2.22;2.00;;;;;;;;;;4955899;28;20047;-70
2022/06/15 12:30:43;;;;;;;5.60;2.83;;;;;;;;;;4954107;28;20713;-70
2022/06/15 12:33:15;;;;;;;4.65;2.28;;;;;;;;;;4955885;28;20043;-70
2022/06/15 12:35:44;;;;;;;4.72;2.13;;;;;;;;;;4955510;28;20047;-70
2022/06/15 12:38:11;;;;;;;3.50;1.83;;;;;;;;;;4956293;28;20050;-70
2022/06/15 12:40:42;;;;;;;4.70;2.25;;;;;;;;;;4955696;28;20409;-70
2022/06/15 12:43:17;;;;;;;3.63;2.08;;;;;;;;;;4956159;28;20043;-70
2022/06/15 12:45:45;;;;;;;7.68;2.40;;;;;;;;;;4956238;28;20044;-70
2022/06/15 12:48:18;;;;;;;5.85;2.50;;;;;;;;;;4955827;28;20502;-70
2022/06/15 12:50:48;;;;;;;4.70;2.22;;;;;;;;;;4956253;28;20047;-70
2022/06/15 12:53:34;;;;;;;6.32;2.30;;;;;;;;;;4955887;28;20047;-70
2022/06/15 12:56:19;;;;;;;5.30;2.00;;;;;;;;;;4951535;28;20047;-70
2022/06/15 12:58:55;;;;;;;4.00;1.95;;;;;;;;;;4955149;28;20039;-70
2022/06/15 13:01:28;;;;;;;5.88;2.10;;;;;;;;;;4955169;28;20047;-70
2022/06/15 13:04:12;;;;;;;8.48;2.47;;;;;;;;;;4955246;28;20043;-70
2022/06/15 13:06:39;;;;;;;7.97;2.50;;;;;;;;;;4955385;28;20043;-70
2022/06/15 13:09:11;;;;;;;3.40;1.98;;;;;;;;;;4955016;28;20053;-70
2022/06/15 13:11:56;;;;;;;4.00;2.10;;;;;;;;;;4954423;28;20046;-70
2022/06/15 13:14:24;;;;;;;5.28;2.30;;;;;;;;;;4955024;28;20062;-70
2022/06/15 13:16:58;;;;;;;5.90;2.10;;;;;;;;;;4955286;28;20113;-70
2022/06/15 13:19:30;;;;;;;7.13;2.40;;;;;;;;;;4955314;28;20047;-70
2022/06/15 13:22:21;;;;;;;4.03;1.98;;;;;;;;;;4955175;28;20178;-70
2022/06/15 13:24:53;;;;;;;6.07;2.45;;;;;;;;;;4955651;28;20122;-70
2022/06/15 13:27:27;;;;;;;3.58;2.25;;;;;;;;;;4954980;28;20051;-70
2022/06/15 13:30:08;;;;;;;5.03;2.75;;;;;;;;;;4955340;28;20039;-70
2022/06/15 13:32:54;;;;;;;4.43;2.15;;;;;;;;;;4954062;28;20097;-70
2022/06/15 13:35:27;;;;;;;6.72;2.20;;;;;;;;;;4954982;28;20054;-70
2022/06/15 13:38:15;;;;;;;7.70;2.40;;;;;;;;;;4954951;28;20093;-70
2022/06/15 13:41:00;;;;;;;6.90;2.22;;;;;;;;;;4954592;28;20039;-70
2022/06/15 13:43:31;;;;;;;6.82;2.30;;;;;;;;;;4954284;28;20054;-70
2022/06/15 13:46:00;;;;;;;5.10;2.50;;;;;;;;;;4954882;28;20039;-70
2022/06/15 13:48:41;;;;;;;8.27;2.35;;;;;;;;;;4954869;28;20043;-70
2022/06/15 13:51:10;;;;;;;6.60;2.38;;;;;;;;;;4954665;28;20043;-70
2022/06/15 13:53:55;;;;;;;5.97;2.97;;;;;;;;;;4957626;28;20071;-70
2022/06/15 13:56:27;;;;;;;6.88;2.45;;;;;;;;;;4962102;28;20039;-71
2022/06/15 13:59:11;;;;;;;9.95;2.47;;;;;;;;;;4948942;28;20086;-70
2022/06/15 14:01:56;;;;;;;6.97;3.08;;;;;;;;;;4948829;29;20035;-71
2022/06/15 14:04:41;;;;;;;6.85;2.63;;;;;;;;;;4936474;28;20047;-71
2022/06/15 14:07:28;;;;;;;9.23;2.60;;;;;;;;;;4935444;28;20046;-71
2022/06/15 14:10:16;;;;;;;5.45;2.00;;;;;;;;;;4944525;29;20495;-71
2022/06/15 14:13:01;;;;;;;6.95;2.35;;;;;;;;;;4959480;28;20062;-71
2022/06/15 14:15:27;;;;;;;8.23;2.63;;;;;;;;;;4977261;28;20046;-71
2022/06/15 14:18:12;;;;;;;5.88;2.35;;;;;;;;;;4994430;28;20062;-70
2022/06/15 14:20:46;;;;;;;8.50;2.78;;;;;;;;;;4996877;28;20109;-71
2022/06/15 14:23:13;;;;;;;3.42;2.33;;;;;;;;;;4998659;28;20073;-71
2022/06/15 14:25:41;;;;;;;6.55;2.25;;;;;;;;;;5000944;28;20042;-71
2022/06/15 14:28:13;;;;;;;8.88;2.33;;;;;;;;;;4998744;28;20039;-71
2022/06/15 14:30:40;;;;;;;4.10;2.25;;;;;;;;;;4985807;28;20477;-72
2022/06/15 14:33:25;;;;;;;7.50;2.72;;;;;;;;;;4997374;28;20404;-72
2022/06/15 14:36:21;;;;;;;6.28;2.25;;;;;;;;;;4992627;28;20117;-70
2022/06/15 14:39:13;;;;;;;7.53;2.13;;;;;;;;;;4977013;28;20081;-71
2022/06/15 14:41:41;;;;;;;6.03;2.83;;;;;;;;;;4981429;28;20047;-70
2022/06/15 14:44:23;;;;;;;10.38;2.70;;;;;;;;;;4978379;28;20051;-70
2022/06/15 14:46:56;;;;;;;8.10;2.30;;;;;;;;;;4977908;28;20047;-70
2022/06/15 14:49:27;;;;;;;6.40;2.53;;;;;;;;;;4984286;28;20043;-71
2022/06/15 14:52:08;;;;;;;3.78;2.40;;;;;;;;;;4998549;28;20238;-70
2022/06/15 14:54:34;;;;;;;6.68;2.85;;;;;;;;;;4993826;28;20074;-70
2022/06/15 14:57:00;;;;;;;5.93;2.53;;;;;;;;;;4997541;28;20120;-70
2022/06/15 14:59:27;;;;;;;6.25;2.72;;;;;;;;;;4997451;28;20384;-69
2022/06/15 15:02:05;;;;;;;10.70;2.70;;;;;;;;;;4996633;28;20040;-69
2022/06/15 15:04:39;;;;;;;11.55;3.08;;;;;;;;;;4997989;28;20052;-69
2022/06/15 15:09:53;;;;;;;6.82;2.70;;;;;;;;;;4998001;28;20046;-69
2022/06/15 15:12:21;;;;;;;7.72;3.33;;;;;;;;;;4998377;28;20046;-69
2022/06/15 15:14:56;;;;;;;6.00;2.53;;;;;;;;;;5000197;28;20030;-68
2022/06/15 15:17:22;;;;;;;6.22;2.85;;;;;;;;;;4997332;28;20124;-69
2022/06/15 15:19:48;;;;;;;6.57;2.30;;;;;;;;;;4996956;28;20043;-69
2022/06/15 15:22:19;;;;;;;11.88;2.88;;;;;;;;;;4997435;28;20053;-68
2022/06/15 15:24:45;;;;;;;;;;;;;;;;;;4996926;28;20579;-69
2022/06/15 15:27:13;;;;;;;11.85;2.78;;;;;;;;;;4997121;28;19910;-69